Milwaukee, Wisconsin
Traffic Map
Current Weather Conditions
Milwaukee, Wisconsin
Scattered Clouds
Scattered Clouds
17°
Feels Like: 17°
Wind Chill: 17° Ceiling: Unl
Heat Index: 17° Visibility: 10mi
Dew Point: 13° Wind: 10mph
Humidity: 78% Direction: 50° (NE)
Pressure: 30.04in Gusts: 0mph
Raw Report DataKMKE 311352Z 05009KT 10SM FEW090 SCT250 17/13 A3004 RMK AO2 SLP171 T01670128
Traffic Incident Summary
Active as of:
Severity:
Category:
InformationThere was an issue retrieving the traffic information for this location. Please try a different location or try again shortly.
Advertisements
Track Severe Weather on mobile